createdAt,value
2022-08-12T00:03:03.620Z,16.80
2022-08-12T00:06:20.494Z,16.50
2022-08-12T00:09:35.839Z,16.70
2022-08-12T00:12:51.283Z,16.70
2022-08-12T00:16:08.108Z,16.40
2022-08-12T00:19:24.262Z,16.40
2022-08-12T00:22:40.995Z,16.30
2022-08-12T00:26:20.834Z,16.20
2022-08-12T00:29:38.602Z,16.10
2022-08-12T00:32:57.131Z,16.20
2022-08-12T00:36:14.890Z,16.20
2022-08-12T00:39:48.208Z,16.00
2022-08-12T00:42:48.446Z,16.10
2022-08-12T00:46:03.886Z,16.00
2022-08-12T00:49:02.022Z,16.10
2022-08-12T00:52:09.888Z,15.90
2022-08-12T00:55:07.131Z,15.90
2022-08-12T00:58:05.891Z,15.80
2022-08-12T01:01:08.204Z,15.80
2022-08-12T01:04:27.083Z,15.70
2022-08-12T01:07:47.082Z,15.70
2022-08-12T01:11:05.058Z,15.60
2022-08-12T01:14:03.266Z,15.60
2022-08-12T01:17:00.313Z,15.60
2022-08-12T01:20:06.240Z,15.60
2022-08-12T01:24:29.721Z,15.70
2022-08-12T01:27:27.241Z,15.70
2022-08-12T01:30:26.701Z,15.60
2022-08-12T01:33:26.441Z,15.50
2022-08-12T01:36:28.612Z,15.50
2022-08-12T01:39:33.316Z,15.30
2022-08-12T01:42:47.747Z,15.40
2022-08-12T01:46:11.977Z,15.40
2022-08-12T01:50:07.959Z,15.30
2022-08-12T01:53:15.876Z,15.20
2022-08-12T01:56:14.529Z,15.60
2022-08-12T01:59:39.909Z,15.40
2022-08-12T02:02:48.214Z,15.40
2022-08-12T02:06:28.352Z,15.50
2022-08-12T02:10:50.314Z,15.20
2022-08-12T02:14:02.071Z,15.20
2022-08-12T02:17:08.346Z,15.10
2022-08-12T02:20:35.222Z,15.20
2022-08-12T02:23:49.324Z,15.00
2022-08-12T02:26:49.086Z,15.30
2022-08-12T02:29:47.577Z,15.10
2022-08-12T02:32:46.996Z,15.00
2022-08-12T02:35:44.866Z,15.00
2022-08-12T02:38:43.595Z,15.20
2022-08-12T02:41:45.923Z,15.00
2022-08-12T02:44:45.602Z,14.90
2022-08-12T02:47:58.044Z,14.90
2022-08-12T02:51:04.670Z,14.80
2022-08-12T02:54:06.142Z,14.80
2022-08-12T02:57:06.174Z,14.70
2022-08-12T03:00:06.202Z,14.70
2022-08-12T03:03:08.122Z,14.70
2022-08-12T03:06:16.726Z,14.50
2022-08-12T03:09:16.672Z,14.70
2022-08-12T03:12:15.584Z,14.70
2022-08-12T03:15:22.798Z,14.50
2022-08-12T03:18:31.327Z,14.40
2022-08-12T03:21:53.029Z,14.40
2022-08-12T03:24:45.609Z,14.40
2022-08-12T03:27:49.820Z,14.30
2022-08-12T03:30:56.550Z,14.40
2022-08-12T03:34:01.402Z,14.50
2022-08-12T03:37:02.756Z,14.20
2022-08-12T03:39:59.748Z,14.30
2022-08-12T03:43:15.928Z,14.30
2022-08-12T03:46:44.831Z,14.20
2022-08-12T03:50:00.825Z,14.10
2022-08-12T03:53:16.207Z,14.00
2022-08-12T03:56:32.119Z,13.90
2022-08-12T03:59:47.381Z,14.00
2022-08-12T04:02:45.100Z,13.90
2022-08-12T04:05:55.703Z,13.80
2022-08-12T04:08:57.571Z,13.80
2022-08-12T04:12:13.106Z,13.70
2022-08-12T04:15:14.678Z,13.70
2022-08-12T04:18:15.978Z,13.70
2022-08-12T04:21:12.877Z,13.80
2022-08-12T04:24:10.809Z,13.80
2022-08-12T04:27:11.178Z,13.60
2022-08-12T04:30:31.011Z,13.70
2022-08-12T04:33:26.930Z,13.70
2022-08-12T04:36:23.760Z,13.70
2022-08-12T04:39:24.143Z,13.60
2022-08-12T04:42:21.976Z,13.50
2022-08-12T04:45:22.568Z,13.60
2022-08-12T04:48:20.152Z,13.50
2022-08-12T04:51:20.265Z,13.70
2022-08-12T04:54:17.490Z,13.70
2022-08-12T04:57:20.088Z,13.70
2022-08-12T05:00:17.040Z,13.80
2022-08-12T05:03:14.214Z,13.90
2022-08-12T05:06:11.066Z,13.80
2022-08-12T05:09:18.845Z,13.90
2022-08-12T05:12:19.779Z,14.10
2022-08-12T05:15:27.592Z,14.20
2022-08-12T05:18:26.083Z,14.10
2022-08-12T05:21:26.491Z,14.20
2022-08-12T05:24:23.360Z,14.20
2022-08-12T05:27:22.618Z,14.50
2022-08-12T05:30:19.514Z,14.60
2022-08-12T05:33:16.387Z,14.60
2022-08-12T05:36:15.607Z,14.60
2022-08-12T05:39:12.645Z,14.50
2022-08-12T05:42:10.141Z,14.70
2022-08-12T05:45:08.087Z,14.80
2022-08-12T05:48:06.412Z,14.80
2022-08-12T05:51:03.541Z,14.90
2022-08-12T05:54:03.731Z,14.90
2022-08-12T05:57:00.758Z,15.00
2022-08-12T05:59:57.606Z,15.10
2022-08-12T06:03:06.035Z,15.10
2022-08-12T06:06:04.704Z,15.00
2022-08-12T06:09:01.579Z,15.00
2022-08-12T06:12:06.121Z,15.00
2022-08-12T06:15:05.041Z,15.20
2022-08-12T06:18:13.792Z,15.20
2022-08-12T06:21:16.447Z,15.20
2022-08-12T06:24:14.154Z,15.40
2022-08-12T06:27:11.558Z,15.40
2022-08-12T06:30:14.219Z,15.50
2022-08-12T06:33:25.139Z,15.60
2022-08-12T06:36:33.796Z,15.70
2022-08-12T06:39:30.821Z,15.90
2022-08-12T06:42:46.633Z,15.90
2022-08-12T06:45:47.259Z,16.10
2022-08-12T06:48:44.133Z,16.20
2022-08-12T06:51:41.131Z,16.40
2022-08-12T06:54:50.570Z,16.50
2022-08-12T06:58:06.072Z,16.60
2022-08-12T07:01:07.361Z,16.80
2022-08-12T07:04:33.411Z,17.00
2022-08-12T07:07:21.507Z,17.10
2022-08-12T07:10:18.645Z,17.30
2022-08-12T07:13:15.494Z,17.50
2022-08-12T07:16:15.804Z,17.80
2022-08-12T07:19:12.691Z,18.20
2022-08-12T07:22:13.525Z,18.50
2022-08-12T07:25:28.878Z,18.80
2022-08-12T07:28:29.399Z,18.80
2022-08-12T07:31:27.960Z,19.00
2022-08-12T07:34:24.865Z,19.40
2022-08-12T07:37:21.851Z,19.30
2022-08-12T07:40:19.817Z,19.40
2022-08-12T07:43:16.761Z,19.30
2022-08-12T07:46:19.788Z,19.40
2022-08-12T07:49:17.049Z,19.60
2022-08-12T07:52:14.394Z,19.60
2022-08-12T07:55:13.154Z,19.70
2022-08-12T07:58:10.011Z,19.70
2022-08-12T08:01:11.858Z,20.00
2022-08-12T08:04:27.418Z,20.30
2022-08-12T08:07:30.426Z,20.20
2022-08-12T08:10:30.482Z,20.20
2022-08-12T08:13:27.343Z,20.10
2022-08-12T08:16:24.665Z,20.10
2022-08-12T08:19:25.473Z,20.40
2022-08-12T08:22:33.516Z,20.40
2022-08-12T08:25:39.765Z,20.70
2022-08-12T08:28:36.647Z,20.90
2022-08-12T08:31:33.542Z,21.10
2022-08-12T08:34:54.139Z,21.30
2022-08-12T08:37:48.393Z,21.40
2022-08-12T08:41:05.124Z,21.70
2022-08-12T08:44:03.081Z,21.80
2022-08-12T08:47:01.240Z,22.00
2022-08-12T08:50:01.213Z,22.40
2022-08-12T08:52:59.189Z,22.40
2022-08-12T08:56:11.221Z,22.70
2022-08-12T08:59:12.706Z,23.00
2022-08-12T09:02:09.808Z,23.30
2022-08-12T09:05:14.923Z,23.30
2022-08-12T09:12:07.095Z,23.40
2022-08-12T09:15:07.197Z,23.50
2022-08-12T09:18:18.662Z,23.60
2022-08-12T09:21:30.486Z,23.70
2022-08-12T09:24:47.520Z,24.00
2022-08-12T09:28:04.365Z,24.20
2022-08-12T09:31:05.533Z,24.30
2022-08-12T09:34:25.723Z,24.40
2022-08-12T09:37:57.854Z,24.60
2022-08-12T09:41:01.709Z,24.70
2022-08-12T09:44:39.454Z,25.20
2022-08-12T09:47:37.538Z,25.20
2022-08-12T09:50:37.012Z,25.30
2022-08-12T09:53:38.821Z,25.20
2022-08-12T09:56:59.027Z,25.40
2022-08-12T10:00:16.222Z,25.50
2022-08-12T10:03:31.912Z,25.70
2022-08-12T10:06:36.101Z,25.90
2022-08-12T10:09:57.283Z,26.10
2022-08-12T10:13:12.133Z,26.10
2022-08-12T10:16:21.803Z,26.20
2022-08-12T10:19:21.131Z,26.40
2022-08-12T10:22:49.287Z,26.40
2022-08-12T10:26:34.057Z,26.60
2022-08-12T10:30:11.933Z,26.80
2022-08-12T10:33:18.022Z,27.10
2022-08-12T10:36:16.288Z,27.00
2022-08-12T10:40:01.739Z,27.00
2022-08-12T10:43:11.965Z,27.10
2022-08-12T10:46:21.001Z,27.10
2022-08-12T10:50:03.079Z,27.10
2022-08-12T10:52:48.427Z,27.60
2022-08-12T10:55:56.044Z,27.80
2022-08-12T10:58:55.751Z,28.20
2022-08-12T11:04:19.819Z,28.00
2022-08-12T11:07:03.358Z,28.20
2022-08-12T11:08:38.967Z,28.30
2022-08-12T11:12:34.606Z,28.50
2022-08-12T11:14:56.733Z,28.50
2022-08-12T11:17:56.289Z,28.80
2022-08-12T11:20:54.392Z,29.00
2022-08-12T11:23:54.976Z,28.70
2022-08-12T11:26:53.974Z,28.60
2022-08-12T11:30:01.508Z,28.50
2022-08-12T11:33:03.522Z,28.40
2022-08-12T11:36:14.680Z,29.60
2022-08-12T11:39:12.574Z,29.60
2022-08-12T11:42:09.577Z,28.90
2022-08-12T11:45:10.403Z,29.40
2022-08-12T11:48:07.634Z,29.50
2022-08-12T11:51:05.579Z,29.50
2022-08-12T11:54:03.195Z,29.80
2022-08-12T11:57:02.372Z,29.80
2022-08-12T12:03:17.310Z,29.70
2022-08-12T12:06:16.954Z,29.70
2022-08-12T12:09:14.257Z,30.50
2022-08-12T12:12:13.993Z,30.70
2022-08-12T12:15:12.416Z,30.70
2022-08-12T12:18:39.780Z,30.00
2022-08-12T12:21:48.221Z,29.40
2022-08-12T12:24:47.545Z,30.30
2022-08-12T12:28:05.252Z,30.60
2022-08-12T12:31:04.037Z,30.50
2022-08-12T12:34:01.213Z,30.70
2022-08-12T12:36:58.575Z,30.60
2022-08-12T12:39:58.524Z,30.70
2022-08-12T12:43:00.570Z,29.90
2022-08-12T12:46:02.068Z,29.90
2022-08-12T12:48:58.901Z,30.20
2022-08-12T12:52:19.138Z,30.50
2022-08-12T12:55:14.276Z,30.50
2022-08-12T12:58:14.413Z,30.70
2022-08-12T13:01:27.944Z,30.00
2022-08-12T13:04:34.979Z,30.60
2022-08-12T13:07:49.557Z,30.00
2022-08-12T13:10:51.178Z,29.40
2022-08-12T13:14:10.229Z,29.40
2022-08-12T13:17:14.686Z,29.80
2022-08-12T13:20:13.949Z,29.80
2022-08-12T13:23:36.703Z,29.60
2022-08-12T13:26:35.069Z,28.60
2022-08-12T13:29:34.445Z,30.20
2022-08-12T13:32:31.838Z,30.60
2022-08-12T13:36:03.316Z,30.80
2022-08-12T13:38:54.350Z,31.10
2022-08-12T13:41:51.604Z,30.80
2022-08-12T13:44:53.639Z,30.50
2022-08-12T13:47:55.787Z,30.60
2022-08-12T13:50:52.986Z,30.70
2022-08-12T13:53:57.834Z,30.80
2022-08-12T13:56:56.999Z,29.80
2022-08-12T13:59:55.681Z,30.00
2022-08-12T14:02:57.662Z,30.40
2022-08-12T14:05:59.192Z,29.70
2022-08-12T14:08:56.179Z,29.20
2022-08-12T14:11:59.464Z,29.40
2022-08-12T14:14:57.362Z,29.20
2022-08-12T14:17:54.525Z,29.60
2022-08-12T14:21:04.258Z,30.80
2022-08-12T14:24:08.045Z,31.30
2022-08-12T14:27:09.211Z,31.20
2022-08-12T14:30:15.496Z,31.10
2022-08-12T14:33:15.310Z,31.10
2022-08-12T14:36:22.012Z,30.80
2022-08-12T14:39:19.876Z,30.10
2022-08-12T14:42:17.675Z,30.40
2022-08-12T14:45:15.675Z,29.80
2022-08-12T14:48:14.833Z,30.00
2022-08-12T14:52:57.720Z,30.00
2022-08-12T14:57:58.481Z,30.50
2022-08-12T15:01:14.050Z,30.50
2022-08-12T15:04:13.988Z,30.70
2022-08-12T15:07:33.145Z,30.50
2022-08-12T15:10:32.264Z,30.80
2022-08-12T15:13:34.658Z,30.50
2022-08-12T15:16:36.762Z,30.80
2022-08-12T15:20:30.938Z,30.80
2022-08-12T15:22:53.777Z,30.50
2022-08-12T15:25:59.681Z,29.90
2022-08-12T15:28:56.865Z,30.10
2022-08-12T15:31:59.594Z,29.80
2022-08-12T15:35:00.272Z,29.80
2022-08-12T15:38:10.581Z,30.10
2022-08-12T15:41:13.054Z,30.50
2022-08-12T15:44:19.996Z,31.00
2022-08-12T15:47:48.063Z,30.80
2022-08-12T15:50:53.065Z,29.80
2022-08-12T15:54:33.826Z,30.50
2022-08-12T15:57:24.650Z,30.50
2022-08-12T16:00:48.795Z,29.60
2022-08-12T16:04:00.807Z,29.40
2022-08-12T16:07:06.154Z,30.30
2022-08-12T16:10:08.439Z,30.30
2022-08-12T16:13:16.214Z,30.50
2022-08-12T16:16:23.654Z,30.50
2022-08-12T16:20:03.894Z,30.10
2022-08-12T16:22:38.670Z,30.30
2022-08-12T16:26:02.751Z,30.50
2022-08-12T16:28:56.054Z,30.20
2022-08-12T16:31:54.282Z,30.30
2022-08-12T16:34:54.985Z,30.10
2022-08-12T16:38:25.178Z,29.40
2022-08-12T16:41:13.424Z,30.30
2022-08-12T16:44:10.687Z,30.30
2022-08-12T16:47:07.546Z,29.80
2022-08-12T16:50:09.069Z,30.30
2022-08-12T16:53:17.305Z,30.20
2022-08-12T16:56:17.259Z,30.40
2022-08-12T16:59:16.262Z,29.80
2022-08-12T17:02:31.616Z,29.50
2022-08-12T17:05:31.646Z,29.80
2022-08-12T17:08:29.176Z,29.70
2022-08-12T17:11:26.741Z,29.70
2022-08-12T17:14:25.133Z,29.80
2022-08-12T17:17:39.191Z,29.40
2022-08-12T17:20:43.889Z,29.00
2022-08-12T17:23:53.529Z,29.00
2022-08-12T17:26:53.920Z,28.50
2022-08-12T17:30:04.184Z,28.90
2022-08-12T17:33:06.738Z,28.50
2022-08-12T17:36:05.633Z,27.90
2022-08-12T17:39:04.326Z,28.40
2022-08-12T17:42:11.129Z,28.10
2022-08-12T17:45:24.750Z,28.20
2022-08-12T17:48:22.430Z,28.50
2022-08-12T17:51:34.473Z,28.00
2022-08-12T17:54:50.581Z,27.80
2022-08-12T17:57:48.308Z,27.20
2022-08-12T18:00:51.271Z,27.20
2022-08-12T18:04:05.856Z,27.60
2022-08-12T18:07:08.573Z,26.50
2022-08-12T18:10:06.788Z,26.20
2022-08-12T18:13:06.616Z,26.20
2022-08-12T18:16:06.776Z,26.10
2022-08-12T18:19:03.844Z,26.20
2022-08-12T18:22:03.024Z,25.80
2022-08-12T18:25:05.658Z,25.70
2022-08-12T18:28:16.428Z,25.00
2022-08-12T18:31:19.538Z,24.60
2022-08-12T18:34:20.437Z,24.10
2022-08-12T18:37:29.460Z,24.00
2022-08-12T18:40:59.377Z,24.20
2022-08-12T18:44:07.870Z,24.00
2022-08-12T18:47:09.600Z,23.60
2022-08-12T18:50:12.613Z,23.50
2022-08-12T18:54:04.911Z,23.60
2022-08-12T18:56:33.299Z,23.60
2022-08-12T19:00:00.275Z,23.20
2022-08-12T19:02:54.401Z,23.00
2022-08-12T19:05:56.363Z,22.80
2022-08-12T19:08:54.758Z,22.90
2022-08-12T19:12:10.443Z,22.80
2022-08-12T19:15:17.106Z,22.50
2022-08-12T19:18:14.629Z,22.40
2022-08-12T19:21:16.588Z,22.30
2022-08-12T19:24:35.323Z,22.10
2022-08-12T19:27:34.209Z,22.00
2022-08-12T19:30:52.826Z,21.90
2022-08-12T19:34:21.528Z,22.20
2022-08-12T19:37:08.846Z,21.90
2022-08-12T19:40:20.540Z,21.80
2022-08-12T19:43:25.864Z,21.50
2022-08-12T19:46:43.433Z,22.00
2022-08-12T19:49:55.171Z,22.20
2022-08-12T19:52:54.975Z,21.80
2022-08-12T19:55:54.857Z,21.50
2022-08-12T19:58:52.186Z,21.60
2022-08-12T20:02:02.675Z,21.80
2022-08-12T20:06:06.240Z,21.70
2022-08-12T20:08:34.283Z,21.50
2022-08-12T20:12:11.336Z,21.50
2022-08-12T20:14:52.400Z,21.40
2022-08-12T20:17:51.067Z,21.10
2022-08-12T20:20:48.344Z,21.20
2022-08-12T20:24:00.298Z,21.40
2022-08-12T20:26:58.192Z,21.10
2022-08-12T20:29:55.439Z,21.20
2022-08-12T20:32:59.375Z,21.20
2022-08-12T20:36:14.097Z,21.50
2022-08-12T20:39:34.289Z,21.60
2022-08-12T20:42:33.265Z,21.40
2022-08-12T20:45:32.940Z,21.10
2022-08-12T20:48:54.737Z,21.00
2022-08-12T20:51:56.278Z,20.60
2022-08-12T20:54:53.594Z,20.50
2022-08-12T20:58:02.420Z,20.40
2022-08-12T21:01:01.386Z,20.50
2022-08-12T21:04:18.306Z,20.20
2022-08-12T21:07:16.114Z,20.30
2022-08-12T21:10:13.069Z,19.90
2022-08-12T21:13:20.012Z,19.80
2022-08-12T21:16:17.121Z,20.00
2022-08-12T21:19:52.858Z,20.40
2022-08-12T21:22:51.234Z,20.30
2022-08-12T21:25:48.257Z,20.50
2022-08-12T21:28:58.738Z,20.40
2022-08-12T21:32:36.310Z,20.40
2022-08-12T21:35:23.266Z,20.50
2022-08-12T21:38:20.216Z,20.00
2022-08-12T21:41:31.118Z,19.80
2022-08-12T21:45:47.055Z,19.30
2022-08-12T21:47:53.139Z,19.10
2022-08-12T21:50:51.217Z,19.10
2022-08-12T21:54:07.123Z,19.20
2022-08-12T21:57:05.062Z,19.00
2022-08-12T22:00:16.984Z,19.30
2022-08-12T22:04:02.754Z,19.40
2022-08-12T22:06:53.397Z,19.20
2022-08-12T22:09:56.966Z,19.30
2022-08-12T22:12:58.457Z,19.40
2022-08-12T22:15:58.091Z,19.10
2022-08-12T22:18:54.922Z,19.30
2022-08-12T22:21:58.839Z,19.20
2022-08-12T22:25:01.070Z,19.00
2022-08-12T22:28:16.306Z,19.20
2022-08-12T22:31:15.052Z,19.30
2022-08-12T22:34:18.371Z,19.10
2022-08-12T22:37:19.658Z,18.80
2022-08-12T22:40:17.198Z,18.80
2022-08-12T22:43:34.357Z,18.40
2022-08-12T22:46:53.060Z,18.10
2022-08-12T22:49:59.347Z,17.90
2022-08-12T22:53:15.566Z,17.90
2022-08-12T22:56:14.328Z,17.80
2022-08-12T22:59:11.343Z,17.70
2022-08-12T23:02:09.170Z,17.60
2022-08-12T23:05:10.568Z,17.50
2022-08-12T23:08:07.491Z,17.40
2022-08-12T23:11:10.775Z,17.50
2022-08-12T23:14:07.608Z,17.40
2022-08-12T23:17:07.410Z,17.30
2022-08-12T23:20:18.233Z,17.30
2022-08-12T23:23:24.013Z,17.10
2022-08-12T23:26:40.818Z,17.00
2022-08-12T23:29:43.948Z,16.90
2022-08-12T23:33:00.064Z,17.10
2022-08-12T23:36:02.810Z,16.90
2022-08-12T23:39:01.815Z,16.90
2022-08-12T23:42:17.741Z,16.80
2022-08-12T23:45:20.266Z,16.80
2022-08-12T23:48:31.744Z,16.60
2022-08-12T23:51:32.100Z,16.60
2022-08-12T23:54:39.220Z,16.70
2022-08-12T23:58:18.403Z,16.70
